Lake Itasca, Minnesota
Current Conditions -  °F | °C
As of 6:33 AM on Thursday 23 Oct 2014 (Local Time) from KBJI Reporting Station
Overcast Overcast  
Wind Chill: 45°   Ceiling: 400
Heat Index: 48°   Visibility: 7mi
Dew Point: 47°   Wind: 8mph
Humidity: 97%   Direction: 210°SSW
Pressure: 29.9"   Gusts: NA
Location:  47.25°N, 95.21°W
Report Text: KBJI 231133Z AUTO 21007KT 7SM OVC004 09/09 A2990 RMK AO2 T00900086
Loading
Personal Weather Stations






























Interactive Weather Map
Tropical Storm Tracking
New forecast layout! Learn more

10-Day Weather Forecast

Advertisements
Track Severe Weather on mobile